sensor_id;sensor_type;location;lat;lon;timestamp;pressure;altitude;pressure_sealevel;temperature;humidity
57232;BME280;43488;46.934;8.276;2024-01-06T00:01:59;95353.50;;;5.30;100.00
57232;BME280;43488;46.934;8.276;2024-01-06T00:05:07;95348.91;;;5.32;100.00
57232;BME280;43488;46.934;8.276;2024-01-06T00:08:15;95356.72;;;5.32;100.00
57232;BME280;43488;46.934;8.276;2024-01-06T00:11:23;95361.31;;;5.30;100.00
57232;BME280;43488;46.934;8.276;2024-01-06T00:14:30;95355.31;;;5.29;100.00
57232;BME280;43488;46.934;8.276;2024-01-06T00:17:38;95362.75;;;5.26;100.00
57232;BME280;43488;46.934;8.276;2024-01-06T00:20:46;95352.94;;;5.21;100.00
57232;BME280;43488;46.934;8.276;2024-01-06T00:23:53;95349.50;;;5.21;100.00
57232;BME280;43488;46.934;8.276;2024-01-06T00:27:03;95353.09;;;5.20;100.00
57232;BME280;43488;46.934;8.276;2024-01-06T00:30:11;95354.13;;;5.19;100.00
57232;BME280;43488;46.934;8.276;2024-01-06T00:33:19;95342.88;;;5.18;100.00
57232;BME280;43488;46.934;8.276;2024-01-06T00:36:27;95357.94;;;5.16;100.00
57232;BME280;43488;46.934;8.276;2024-01-06T00:39:35;95364.16;;;5.15;100.00
57232;BME280;43488;46.934;8.276;2024-01-06T00:42:42;95364.38;;;5.13;100.00
57232;BME280;43488;46.934;8.276;2024-01-06T00:45:50;95358.94;;;5.08;100.00
57232;BME280;43488;46.934;8.276;2024-01-06T00:48:58;95363.34;;;5.08;100.00
57232;BME280;43488;46.934;8.276;2024-01-06T00:52:05;95362.53;;;5.07;100.00
57232;BME280;43488;46.934;8.276;2024-01-06T00:55:13;95373.41;;;5.04;100.00
57232;BME280;43488;46.934;8.276;2024-01-06T00:58:21;95383.81;;;5.04;100.00
57232;BME280;43488;46.934;8.276;2024-01-06T01:01:28;95400.06;;;5.00;100.00
57232;BME280;43488;46.934;8.276;2024-01-06T01:04:36;95396.06;;;4.97;100.00
57232;BME280;43488;46.934;8.276;2024-01-06T01:07:44;95402.66;;;5.00;100.00
57232;BME280;43488;46.934;8.276;2024-01-06T01:10:51;95406.28;;;4.99;100.00
57232;BME280;43488;46.934;8.276;2024-01-06T01:13:59;95400.25;;;4.98;100.00
57232;BME280;43488;46.934;8.276;2024-01-06T01:17:07;95410.91;;;4.97;100.00
57232;BME280;43488;46.934;8.276;2024-01-06T01:20:14;95401.84;;;4.93;100.00
57232;BME280;43488;46.934;8.276;2024-01-06T01:23:22;95400.84;;;4.94;100.00
57232;BME280;43488;46.934;8.276;2024-01-06T01:26:30;95404.66;;;4.91;100.00
57232;BME280;43488;46.934;8.276;2024-01-06T01:29:37;95406.69;;;4.89;100.00
57232;BME280;43488;46.934;8.276;2024-01-06T01:32:45;95406.69;;;4.89;100.00
57232;BME280;43488;46.934;8.276;2024-01-06T01:35:53;95403.47;;;4.87;100.00
57232;BME280;43488;46.934;8.276;2024-01-06T01:39:00;95411.50;;;4.85;100.00
57232;BME280;43488;46.934;8.276;2024-01-06T01:42:08;95406.44;;;4.84;100.00
57232;BME280;43488;46.934;8.276;2024-01-06T01:45:16;95411.06;;;4.82;100.00
57232;BME280;43488;46.934;8.276;2024-01-06T01:48:25;95409.88;;;4.78;100.00
57232;BME280;43488;46.934;8.276;2024-01-06T01:51:34;95419.88;;;4.74;100.00
57232;BME280;43488;46.934;8.276;2024-01-06T01:54:43;95419.47;;;4.71;100.00
57232;BME280;43488;46.934;8.276;2024-01-06T01:57:52;95421.84;;;4.66;100.00
57232;BME280;43488;46.934;8.276;2024-01-06T02:01:00;95423.28;;;4.68;100.00
57232;BME280;43488;46.934;8.276;2024-01-06T02:04:11;95426.50;;;4.70;100.00
57232;BME280;43488;46.934;8.276;2024-01-06T02:07:19;95425.91;;;4.68;100.00
57232;BME280;43488;46.934;8.276;2024-01-06T02:10:27;95423.09;;;4.70;100.00
57232;BME280;43488;46.934;8.276;2024-01-06T02:13:36;95424.69;;;4.71;100.00
57232;BME280;43488;46.934;8.276;2024-01-06T02:16:44;95427.06;;;4.66;100.00
57232;BME280;43488;46.934;8.276;2024-01-06T02:19:52;95419.44;;;4.64;100.00
57232;BME280;43488;46.934;8.276;2024-01-06T02:23:00;95432.28;;;4.66;100.00
57232;BME280;43488;46.934;8.276;2024-01-06T02:26:08;95429.88;;;4.64;100.00
57232;BME280;43488;46.934;8.276;2024-01-06T02:29:16;95433.28;;;4.65;100.00
57232;BME280;43488;46.934;8.276;2024-01-06T02:32:24;95434.28;;;4.64;100.00
57232;BME280;43488;46.934;8.276;2024-01-06T02:35:31;95430.06;;;4.63;100.00
57232;BME280;43488;46.934;8.276;2024-01-06T02:38:39;95430.88;;;4.63;100.00
57232;BME280;43488;46.934;8.276;2024-01-06T02:41:47;95429.88;;;4.64;100.00
57232;BME280;43488;46.934;8.276;2024-01-06T02:44:54;95431.47;;;4.59;100.00
57232;BME280;43488;46.934;8.276;2024-01-06T02:48:02;95425.47;;;4.58;100.00
57232;BME280;43488;46.934;8.276;2024-01-06T02:51:11;95434.66;;;4.54;100.00
57232;BME280;43488;46.934;8.276;2024-01-06T02:54:20;95434.63;;;4.47;100.00
57232;BME280;43488;46.934;8.276;2024-01-06T02:57:30;95432.41;;;4.44;100.00
57232;BME280;43488;46.934;8.276;2024-01-06T03:00:37;95441.81;;;4.39;100.00
57232;BME280;43488;46.934;8.276;2024-01-06T03:03:45;95449.03;;;4.37;100.00
57232;BME280;43488;46.934;8.276;2024-01-06T03:06:53;95445.63;;;4.36;100.00
57232;BME280;43488;46.934;8.276;2024-01-06T03:10:01;95450.63;;;4.38;100.00
57232;BME280;43488;46.934;8.276;2024-01-06T03:13:08;95446.63;;;4.35;100.00
57232;BME280;43488;46.934;8.276;2024-01-06T03:16:16;95448.03;;;4.38;100.00
57232;BME280;43488;46.934;8.276;2024-01-06T03:19:24;95442.59;;;4.33;100.00
57232;BME280;43488;46.934;8.276;2024-01-06T03:22:34;95447.59;;;4.27;100.00
57232;BME280;43488;46.934;8.276;2024-01-06T03:25:42;95451.63;;;4.30;100.00
57232;BME280;43488;46.934;8.276;2024-01-06T03:28:50;95454.19;;;4.23;100.00
57232;BME280;43488;46.934;8.276;2024-01-06T03:31:57;95444.34;;;4.19;100.00
57232;BME280;43488;46.934;8.276;2024-01-06T03:35:06;95456.16;;;4.15;100.00
57232;BME280;43488;46.934;8.276;2024-01-06T03:38:14;95454.75;;;4.12;100.00
57232;BME280;43488;46.934;8.276;2024-01-06T03:41:21;95460.50;;;4.08;100.00
57232;BME280;43488;46.934;8.276;2024-01-06T03:44:29;95460.91;;;4.05;100.00
57232;BME280;43488;46.934;8.276;2024-01-06T03:47:38;95463.25;;;3.99;100.00
57232;BME280;43488;46.934;8.276;2024-01-06T03:50:46;95466.13;;;4.05;100.00
57232;BME280;43488;46.934;8.276;2024-01-06T03:53:53;95470.94;;;4.08;100.00
57232;BME280;43488;46.934;8.276;2024-01-06T03:57:01;95471.88;;;4.00;100.00
57232;BME280;43488;46.934;8.276;2024-01-06T04:00:09;95466.13;;;4.05;100.00
57232;BME280;43488;46.934;8.276;2024-01-06T04:03:17;95465.72;;;4.08;100.00
57232;BME280;43488;46.934;8.276;2024-01-06T04:06:25;95462.13;;;4.09;100.00
57232;BME280;43488;46.934;8.276;2024-01-06T04:09:33;95460.91;;;4.05;100.00
57232;BME280;43488;46.934;8.276;2024-01-06T04:12:40;95476.28;;;3.99;100.00
57232;BME280;43488;46.934;8.276;2024-01-06T04:15:48;95479.34;;;4.03;100.00
57232;BME280;43488;46.934;8.276;2024-01-06T04:18:56;95476.53;;;4.05;100.00
57232;BME280;43488;46.934;8.276;2024-01-06T04:22:03;95485.16;;;4.05;100.00
57232;BME280;43488;46.934;8.276;2024-01-06T04:25:11;95487.31;;;4.02;100.00
57232;BME280;43488;46.934;8.276;2024-01-06T04:28:19;95492.53;;;4.02;100.00
57232;BME280;43488;46.934;8.276;2024-01-06T04:31:26;95495.47;;;3.92;100.00
57232;BME280;43488;46.934;8.276;2024-01-06T04:34:34;95490.44;;;3.90;100.00
57232;BME280;43488;46.934;8.276;2024-01-06T04:37:42;95494.84;;;3.90;100.00
57232;BME280;43488;46.934;8.276;2024-01-06T04:40:49;95499.25;;;3.89;100.00
57232;BME280;43488;46.934;8.276;2024-01-06T04:43:57;95502.28;;;3.93;100.00
57232;BME280;43488;46.934;8.276;2024-01-06T04:47:05;95494.09;;;3.96;100.00
57232;BME280;43488;46.934;8.276;2024-01-06T04:50:12;95501.13;;;3.95;100.00
57232;BME280;43488;46.934;8.276;2024-01-06T04:53:20;95508.16;;;4.02;100.00
57232;BME280;43488;46.934;8.276;2024-01-06T04:56:28;95498.13;;;3.98;100.00
57232;BME280;43488;46.934;8.276;2024-01-06T04:59:35;95504.31;;;3.97;100.00
57232;BME280;43488;46.934;8.276;2024-01-06T05:02:44;95508.69;;;3.90;100.00
57232;BME280;43488;46.934;8.276;2024-01-06T05:05:51;95509.28;;;3.92;100.00
57232;BME280;43488;46.934;8.276;2024-01-06T05:08:59;95518.53;;;3.95;100.00
57232;BME280;43488;46.934;8.276;2024-01-06T05:12:07;95526.16;;;3.96;100.00
57232;BME280;43488;46.934;8.276;2024-01-06T05:15:15;95519.69;;;3.86;100.00
57232;BME280;43488;46.934;8.276;2024-01-06T05:18:23;95517.25;;;3.84;100.00
57232;BME280;43488;46.934;8.276;2024-01-06T05:21:30;95521.28;;;3.87;100.00
57232;BME280;43488;46.934;8.276;2024-01-06T05:24:38;95519.22;;;3.82;100.00
57232;BME280;43488;46.934;8.276;2024-01-06T05:27:46;95525.69;;;3.86;100.00
57232;BME280;43488;46.934;8.276;2024-01-06T05:30:54;95525.69;;;3.86;100.00
57232;BME280;43488;46.934;8.276;2024-01-06T05:34:01;95534.09;;;3.88;100.00
57232;BME280;43488;46.934;8.276;2024-01-06T05:37:09;95528.91;;;3.88;100.00
57232;BME280;43488;46.934;8.276;2024-01-06T05:40:17;95534.31;;;3.87;100.00
57232;BME280;43488;46.934;8.276;2024-01-06T05:43:24;95533.06;;;3.83;100.00
57232;BME280;43488;46.934;8.276;2024-01-06T05:46:33;95543.47;;;3.83;100.00
57232;BME280;43488;46.934;8.276;2024-01-06T05:49:44;95544.84;;;3.79;100.00
57232;BME280;43488;46.934;8.276;2024-01-06T05:52:51;95548.00;;;3.74;100.00
57232;BME280;43488;46.934;8.276;2024-01-06T05:55:59;95551.97;;;3.70;100.00
57232;BME280;43488;46.934;8.276;2024-01-06T05:59:07;95558.06;;;3.77;100.00
57232;BME280;43488;46.934;8.276;2024-01-06T06:02:14;95554.41;;;3.71;100.00
57232;BME280;43488;46.934;8.276;2024-01-06T06:05:22;95554.34;;;3.65;100.00
57232;BME280;43488;46.934;8.276;2024-01-06T06:08:30;95551.69;;;3.58;100.00
57232;BME280;43488;46.934;8.276;2024-01-06T06:11:37;95550.25;;;3.56;100.00
57232;BME280;43488;46.934;8.276;2024-01-06T06:14:45;95550.88;;;3.58;100.00
57232;BME280;43488;46.934;8.276;2024-01-06T06:17:53;95544.44;;;3.54;100.00
57232;BME280;43488;46.934;8.276;2024-01-06T06:21:01;95552.03;;;3.55;100.00
57232;BME280;43488;46.934;8.276;2024-01-06T06:24:08;95554.34;;;3.65;100.00
57232;BME280;43488;46.934;8.276;2024-01-06T06:27:16;95545.97;;;3.69;100.00
57232;BME280;43488;46.934;8.276;2024-01-06T06:30:24;95555.00;;;3.74;100.00
57232;BME280;43488;46.934;8.276;2024-01-06T06:33:31;95566.81;;;3.69;100.00
57232;BME280;43488;46.934;8.276;2024-01-06T06:36:40;95560.34;;;3.65;100.00
57232;BME280;43488;46.934;8.276;2024-01-06T06:39:48;95571.06;;;3.56;100.00
57232;BME280;43488;46.934;8.276;2024-01-06T06:42:56;95571.25;;;3.54;100.00
57232;BME280;43488;46.934;8.276;2024-01-06T06:46:04;95570.25;;;3.55;100.00
57232;BME280;43488;46.934;8.276;2024-01-06T06:49:11;95570.72;;;3.59;100.00
57232;BME280;43488;46.934;8.276;2024-01-06T06:52:19;95571.13;;;3.62;100.00
57232;BME280;43488;46.934;8.276;2024-01-06T06:55:27;95574.59;;;3.69;100.00
57232;BME280;43488;46.934;8.276;2024-01-06T06:58:34;95573.41;;;3.72;100.00
57232;BME280;43488;46.934;8.276;2024-01-06T07:01:42;95570.81;;;3.72;100.00
57232;BME280;43488;46.934;8.276;2024-01-06T07:04:50;95577.59;;;3.66;100.00
57232;BME280;43488;46.934;8.276;2024-01-06T07:08:00;95573.53;;;3.64;100.00
57232;BME280;43488;46.934;8.276;2024-01-06T07:11:08;95574.00;;;3.67;100.00
57232;BME280;43488;46.934;8.276;2024-01-06T07:14:18;95579.19;;;3.67;100.00
57232;BME280;43488;46.934;8.276;2024-01-06T07:17:26;95582.03;;;3.72;100.00
57232;BME280;43488;46.934;8.276;2024-01-06T07:20:34;95578.09;;;3.77;100.00
57232;BME280;43488;46.934;8.276;2024-01-06T07:23:42;95585.50;;;3.80;100.00
57232;BME280;43488;46.934;8.276;2024-01-06T07:26:49;95580.91;;;3.82;100.00
57232;BME280;43488;46.934;8.276;2024-01-06T07:29:57;95593.94;;;3.82;100.00
57232;BME280;43488;46.934;8.276;2024-01-06T07:33:05;95594.31;;;3.79;100.00
57232;BME280;43488;46.934;8.276;2024-01-06T07:36:12;95599.94;;;3.82;100.00
57232;BME280;43488;46.934;8.276;2024-01-06T07:39:20;95591.78;;;3.85;100.00
57232;BME280;43488;46.934;8.276;2024-01-06T07:42:28;95606.59;;;3.85;100.00
57232;BME280;43488;46.934;8.276;2024-01-06T07:45:35;95605.59;;;3.86;100.00
57232;BME280;43488;46.934;8.276;2024-01-06T07:48:43;95611.59;;;3.86;100.00
57232;BME280;43488;46.934;8.276;2024-01-06T07:51:51;95608.63;;;3.89;100.00
57232;BME280;43488;46.934;8.276;2024-01-06T07:54:58;95618.66;;;3.92;100.00
57232;BME280;43488;46.934;8.276;2024-01-06T07:58:06;95616.50;;;3.96;100.00
57232;BME280;43488;46.934;8.276;2024-01-06T08:01:14;95619.28;;;3.94;100.00
57232;BME280;43488;46.934;8.276;2024-01-06T08:04:21;95617.31;;;3.96;100.00
57232;BME280;43488;46.934;8.276;2024-01-06T08:07:29;95621.44;;;3.91;100.00
57232;BME280;43488;46.934;8.276;2024-01-06T08:10:37;95622.38;;;3.83;100.00
57232;BME280;43488;46.934;8.276;2024-01-06T08:13:44;95614.53;;;3.77;100.00
57232;BME280;43488;46.934;8.276;2024-01-06T08:16:52;95607.88;;;3.74;100.00
57232;BME280;43488;46.934;8.276;2024-01-06T08:20:00;95614.47;;;3.70;100.00
57232;BME280;43488;46.934;8.276;2024-01-06T08:23:07;95624.88;;;3.70;100.00
57232;BME280;43488;46.934;8.276;2024-01-06T08:26:15;95625.25;;;3.67;100.00
57232;BME280;43488;46.934;8.276;2024-01-06T08:29:23;95622.81;;;3.65;100.00
57232;BME280;43488;46.934;8.276;2024-01-06T08:32:30;95636.16;;;3.77;100.00
57232;BME280;43488;46.934;8.276;2024-01-06T08:35:38;95638.19;;;3.82;100.00
57232;BME280;43488;46.934;8.276;2024-01-06T08:38:47;95638.25;;;3.88;100.00
57232;BME280;43488;46.934;8.276;2024-01-06T08:41:55;95639.47;;;3.92;100.00
57232;BME280;43488;46.934;8.276;2024-01-06T08:45:04;95646.50;;;3.92;100.00
57232;BME280;43488;46.934;8.276;2024-01-06T08:48:12;95646.34;;;3.93;100.00
57232;BME280;43488;46.934;8.276;2024-01-06T08:51:20;95649.34;;;3.97;100.00
57232;BME280;43488;46.934;8.276;2024-01-06T08:54:28;95650.34;;;3.96;100.00
57232;BME280;43488;46.934;8.276;2024-01-06T08:57:36;95646.75;;;3.97;100.00
57232;BME280;43488;46.934;8.276;2024-01-06T09:00:44;95650.16;;;3.97;100.00
57232;BME280;43488;46.934;8.276;2024-01-06T09:03:52;95657.59;;;4.00;100.00
57232;BME280;43488;46.934;8.276;2024-01-06T09:06:59;95664.19;;;3.96;100.00
57232;BME280;43488;46.934;8.276;2024-01-06T09:10:07;95665.59;;;3.99;100.00
57232;BME280;43488;46.934;8.276;2024-01-06T09:13:17;95657.78;;;3.99;100.00
57232;BME280;43488;46.934;8.276;2024-01-06T09:16:25;95664.97;;;3.97;100.00
57232;BME280;43488;46.934;8.276;2024-01-06T09:19:33;95666.41;;;3.99;100.00
57232;BME280;43488;46.934;8.276;2024-01-06T09:22:41;95667.00;;;4.02;100.00
57232;BME280;43488;46.934;8.276;2024-01-06T09:25:49;95666.66;;;4.05;100.00
57232;BME280;43488;46.934;8.276;2024-01-06T09:28:58;95673.22;;;4.00;100.00
57232;BME280;43488;46.934;8.276;2024-01-06T09:32:06;95677.44;;;4.02;100.00
57232;BME280;43488;46.934;8.276;2024-01-06T09:35:13;95675.63;;;4.02;100.00
57232;BME280;43488;46.934;8.276;2024-01-06T09:38:22;95673.47;;;4.06;100.00
57232;BME280;43488;46.934;8.276;2024-01-06T09:41:30;95678.88;;;4.04;100.00
57232;BME280;43488;46.934;8.276;2024-01-06T09:44:38;95676.88;;;4.06;100.00
57232;BME280;43488;46.934;8.276;2024-01-06T09:47:50;95674.81;;;4.02;100.00
57232;BME280;43488;46.934;8.276;2024-01-06T09:51:02;95683.09;;;4.05;100.00
57232;BME280;43488;46.934;8.276;2024-01-06T09:54:12;95674.81;;;4.02;100.00
57232;BME280;43488;46.934;8.276;2024-01-06T09:57:21;95680.72;;;4.10;100.00
57232;BME280;43488;46.934;8.276;2024-01-06T10:00:30;95678.06;;;4.04;100.00
57232;BME280;43488;46.934;8.276;2024-01-06T10:03:38;95673.84;;;4.03;100.00
57232;BME280;43488;46.934;8.276;2024-01-06T10:06:45;95678.88;;;4.04;100.00
57232;BME280;43488;46.934;8.276;2024-01-06T10:09:55;95668.25;;;4.06;100.00
57232;BME280;43488;46.934;8.276;2024-01-06T10:13:02;95676.09;;;4.06;100.00
57232;BME280;43488;46.934;8.276;2024-01-06T10:16:10;95674.09;;;4.08;100.00
57232;BME280;43488;46.934;8.276;2024-01-06T10:19:18;95672.75;;;4.12;100.00
57232;BME280;43488;46.934;8.276;2024-01-06T10:22:25;95674.34;;;4.13;100.00
57232;BME280;43488;46.934;8.276;2024-01-06T10:25:34;95671.34;;;4.16;100.00
57232;BME280;43488;46.934;8.276;2024-01-06T10:28:42;95672.56;;;4.13;100.00
57232;BME280;43488;46.934;8.276;2024-01-06T10:31:49;95674.75;;;4.16;100.00
57232;BME280;43488;46.934;8.276;2024-01-06T10:34:57;95671.97;;;4.18;100.00
57232;BME280;43488;46.934;8.276;2024-01-06T10:38:07;95661.94;;;4.15;100.00
57232;BME280;43488;46.934;8.276;2024-01-06T10:41:16;95654.50;;;4.12;100.00
57232;BME280;43488;46.934;8.276;2024-01-06T10:44:25;95659.31;;;4.15;100.00
57232;BME280;43488;46.934;8.276;2024-01-06T10:47:38;95656.53;;;4.16;100.00
57232;BME280;43488;46.934;8.276;2024-01-06T10:50:46;95645.56;;;4.21;100.00
57232;BME280;43488;46.934;8.276;2024-01-06T10:53:54;95648.28;;;4.13;100.00
57232;BME280;43488;46.934;8.276;2024-01-06T10:57:03;95648.66;;;4.10;100.00
57232;BME280;43488;46.934;8.276;2024-01-06T11:00:12;95643.09;;;4.13;100.00
57232;BME280;43488;46.934;8.276;2024-01-06T11:03:21;95646.69;;;4.12;100.00
57232;BME280;43488;46.934;8.276;2024-01-06T11:06:30;95652.13;;;4.17;100.00
57232;BME280;43488;46.934;8.276;2024-01-06T11:09:44;95649.53;;;4.17;100.00
57232;BME280;43488;46.934;8.276;2024-01-06T11:13:15;95648.53;;;4.18;100.00
57232;BME280;43488;46.934;8.276;2024-01-06T11:16:36;95650.38;;;4.24;100.00
57232;BME280;43488;46.934;8.276;2024-01-06T11:19:44;95645.56;;;4.21;100.00
57232;BME280;43488;46.934;8.276;2024-01-06T11:22:53;95643.38;;;4.24;100.00
57232;BME280;43488;46.934;8.276;2024-01-06T11:26:00;95637.91;;;4.19;100.00
57232;BME280;43488;46.934;8.276;2024-01-06T11:29:08;95640.97;;;4.23;100.00
57232;BME280;43488;46.934;8.276;2024-01-06T11:32:33;95635.38;;;4.26;100.00
57232;BME280;43488;46.934;8.276;2024-01-06T11:35:43;95628.75;;;4.23;100.00
57232;BME280;43488;46.934;8.276;2024-01-06T11:38:51;95637.59;;;4.29;100.00
57232;BME280;43488;46.934;8.276;2024-01-06T11:41:59;95631.81;;;4.34;100.00
57232;BME280;43488;46.934;8.276;2024-01-06T11:45:07;95631.22;;;4.38;100.00
57232;BME280;43488;46.934;8.276;2024-01-06T11:48:15;95624.22;;;4.39;100.00
57232;BME280;43488;46.934;8.276;2024-01-06T11:51:23;95630.69;;;4.43;100.00
57232;BME280;43488;46.934;8.276;2024-01-06T11:54:31;95626.66;;;4.40;100.00
57232;BME280;43488;46.934;8.276;2024-01-06T11:57:39;95621.88;;;4.44;100.00
57232;BME280;43488;46.934;8.276;2024-01-06T12:00:56;95622.47;;;4.46;100.00
57232;BME280;43488;46.934;8.276;2024-01-06T12:04:05;95611.63;;;4.42;100.00
57232;BME280;43488;46.934;8.276;2024-01-06T12:07:13;95610.38;;;4.38;100.00
57232;BME280;43488;46.934;8.276;2024-01-06T12:10:24;95617.41;;;4.38;100.00
57232;BME280;43488;46.934;8.276;2024-01-06T12:13:32;95611.78;;;4.34;100.00
57232;BME280;43488;46.934;8.276;2024-01-06T12:16:39;95613.78;;;4.32;100.00
57232;BME280;43488;46.934;8.276;2024-01-06T12:19:47;95609.38;;;4.33;100.00
57232;BME280;43488;46.934;8.276;2024-01-06T12:22:56;95603.34;;;4.32;100.00
57232;BME280;43488;46.934;8.276;2024-01-06T12:26:04;95602.75;;;4.37;100.00
57232;BME280;43488;46.934;8.276;2024-01-06T12:29:16;95590.13;;;4.34;100.00
57232;BME280;43488;46.934;8.276;2024-01-06T12:32:24;95598.16;;;4.39;100.00
57232;BME280;43488;46.934;8.276;2024-01-06T12:35:33;95600.59;;;4.40;100.00
57232;BME280;43488;46.934;8.276;2024-01-06T12:38:42;95595.75;;;4.37;100.00
57232;BME280;43488;46.934;8.276;2024-01-06T12:41:51;95591.53;;;4.36;100.00
57232;BME280;43488;46.934;8.276;2024-01-06T12:44:59;95582.50;;;4.32;100.00
57232;BME280;43488;46.934;8.276;2024-01-06T12:48:07;95588.88;;;4.29;100.00
57232;BME280;43488;46.934;8.276;2024-01-06T12:51:14;95587.91;;;4.31;100.00
57232;BME280;43488;46.934;8.276;2024-01-06T12:54:22;95590.88;;;4.27;100.00
57232;BME280;43488;46.934;8.276;2024-01-06T12:57:30;95598.50;;;4.29;100.00
57232;BME280;43488;46.934;8.276;2024-01-06T13:00:37;95599.31;;;4.29;100.00
57232;BME280;43488;46.934;8.276;2024-01-06T13:03:47;95586.72;;;4.33;100.00
57232;BME280;43488;46.934;8.276;2024-01-06T13:06:55;95593.72;;;4.33;100.00
57232;BME280;43488;46.934;8.276;2024-01-06T13:10:03;95586.91;;;4.32;100.00
57232;BME280;43488;46.934;8.276;2024-01-06T13:13:11;95593.72;;;4.33;100.00
57232;BME280;43488;46.934;8.276;2024-01-06T13:16:18;95588.72;;;4.31;100.00
57232;BME280;43488;46.934;8.276;2024-01-06T13:19:26;95597.69;;;4.28;100.00
57232;BME280;43488;46.934;8.276;2024-01-06T13:22:34;95597.53;;;4.30;100.00
57232;BME280;43488;46.934;8.276;2024-01-06T13:25:42;95602.34;;;4.33;100.00
57232;BME280;43488;46.934;8.276;2024-01-06T13:28:49;95601.56;;;4.33;100.00
57232;BME280;43488;46.934;8.276;2024-01-06T13:31:57;95598.94;;;4.33;100.00
57232;BME280;43488;46.934;8.276;2024-01-06T13:35:07;95601.34;;;4.34;100.00
57232;BME280;43488;46.934;8.276;2024-01-06T13:38:15;95604.97;;;4.33;100.00
57232;BME280;43488;46.934;8.276;2024-01-06T13:41:23;95613.38;;;4.35;100.00
57232;BME280;43488;46.934;8.276;2024-01-06T13:44:31;95612.97;;;4.32;100.00
57232;BME280;43488;46.934;8.276;2024-01-06T13:47:39;95621.59;;;4.32;100.00
57232;BME280;43488;46.934;8.276;2024-01-06T13:50:52;95620.34;;;4.28;100.00
57232;BME280;43488;46.934;8.276;2024-01-06T13:53:59;95619.19;;;4.31;100.00
57232;BME280;43488;46.934;8.276;2024-01-06T13:57:07;95618.00;;;4.33;100.00
57232;BME280;43488;46.934;8.276;2024-01-06T14:00:15;95626.81;;;4.32;100.00
57232;BME280;43488;46.934;8.276;2024-01-06T14:03:26;95626.81;;;4.32;100.00
57232;BME280;43488;46.934;8.276;2024-01-06T14:06:33;95627.53;;;4.26;100.00
57232;BME280;43488;46.934;8.276;2024-01-06T14:09:41;95631.53;;;4.22;100.00
57232;BME280;43488;46.934;8.276;2024-01-06T14:12:49;95632.66;;;4.13;100.00
57232;BME280;43488;46.934;8.276;2024-01-06T14:15:57;95627.78;;;4.03;100.00
57232;BME280;43488;46.934;8.276;2024-01-06T14:19:04;95632.03;;;4.11;100.00
57232;BME280;43488;46.934;8.276;2024-01-06T14:22:12;95627.31;;;4.21;100.00
57232;BME280;43488;46.934;8.276;2024-01-06T14:25:21;95634.69;;;4.17;100.00
57232;BME280;43488;46.934;8.276;2024-01-06T14:28:29;95638.75;;;3.98;100.00
57232;BME280;43488;46.934;8.276;2024-01-06T14:31:37;95637.69;;;3.93;100.00
57232;BME280;43488;46.934;8.276;2024-01-06T14:34:44;95638.63;;;3.85;100.00
57232;BME280;43488;46.934;8.276;2024-01-06T14:37:52;95640.25;;;3.86;100.00
57232;BME280;43488;46.934;8.276;2024-01-06T14:41:01;95646.31;;;3.72;100.00
57232;BME280;43488;46.934;8.276;2024-01-06T14:44:08;95640.59;;;3.83;100.00
57232;BME280;43488;46.934;8.276;2024-01-06T14:47:16;95645.50;;;3.71;100.00
57232;BME280;43488;46.934;8.276;2024-01-06T14:50:23;95648.19;;;3.78;100.00
57232;BME280;43488;46.934;8.276;2024-01-06T14:53:31;95655.38;;;3.76;100.00
57232;BME280;43488;46.934;8.276;2024-01-06T14:56:38;95659.22;;;3.80;100.00
57232;BME280;43488;46.934;8.276;2024-01-06T14:59:46;95659.91;;;3.89;100.00
57232;BME280;43488;46.934;8.276;2024-01-06T15:02:55;95665.97;;;3.96;100.00
57232;BME280;43488;46.934;8.276;2024-01-06T15:06:03;95661.44;;;4.05;100.00
57232;BME280;43488;46.934;8.276;2024-01-06T15:09:10;95663.59;;;4.01;100.00
57232;BME280;43488;46.934;8.276;2024-01-06T15:12:18;95672.88;;;4.04;100.00
57232;BME280;43488;46.934;8.276;2024-01-06T15:15:25;95678.06;;;4.04;100.00
57232;BME280;43488;46.934;8.276;2024-01-06T15:18:33;95666.47;;;4.06;100.00
57232;BME280;43488;46.934;8.276;2024-01-06T15:21:42;95674.34;;;4.13;100.00
57232;BME280;43488;46.934;8.276;2024-01-06T15:24:50;95682.16;;;4.13;100.00
57232;BME280;43488;46.934;8.276;2024-01-06T15:27:58;95690.78;;;4.13;100.00
57232;BME280;43488;46.934;8.276;2024-01-06T15:31:06;95678.75;;;4.12;100.00
57232;BME280;43488;46.934;8.276;2024-01-06T15:34:14;95685.75;;;4.12;100.00
57232;BME280;43488;46.934;8.276;2024-01-06T15:37:22;95677.31;;;4.10;100.00
57232;BME280;43488;46.934;8.276;2024-01-06T15:40:29;95686.00;;;4.17;100.00
57232;BME280;43488;46.934;8.276;2024-01-06T15:43:37;95679.16;;;4.16;100.00
57232;BME280;43488;46.934;8.276;2024-01-06T15:46:45;95681.72;;;4.09;100.00
57232;BME280;43488;46.934;8.276;2024-01-06T15:49:53;95684.69;;;4.06;100.00
57232;BME280;43488;46.934;8.276;2024-01-06T15:53:00;95686.88;;;4.03;100.00
57232;BME280;43488;46.934;8.276;2024-01-06T15:56:08;95686.50;;;4.06;100.00
57232;BME280;43488;46.934;8.276;2024-01-06T15:59:16;95692.13;;;4.09;100.00
57232;BME280;43488;46.934;8.276;2024-01-06T16:02:24;95689.34;;;4.11;100.00
57232;BME280;43488;46.934;8.276;2024-01-06T16:05:31;95692.94;;;4.10;100.00
57232;BME280;43488;46.934;8.276;2024-01-06T16:08:39;95698.94;;;4.10;100.00
57232;BME280;43488;46.934;8.276;2024-01-06T16:11:47;95699.34;;;4.07;100.00
57232;BME280;43488;46.934;8.276;2024-01-06T16:14:54;95711.28;;;4.02;100.00
57232;BME280;43488;46.934;8.276;2024-01-06T16:18:02;95706.47;;;3.98;100.00
57232;BME280;43488;46.934;8.276;2024-01-06T16:21:10;95706.28;;;4.00;100.00
57232;BME280;43488;46.934;8.276;2024-01-06T16:24:18;95711.75;;;4.05;100.00
57232;BME280;43488;46.934;8.276;2024-01-06T16:27:26;95714.97;;;4.07;100.00
57232;BME280;43488;46.934;8.276;2024-01-06T16:30:33;95713.03;;;3.94;100.00
57232;BME280;43488;46.934;8.276;2024-01-06T16:33:41;95717.97;;;3.89;100.00
57232;BME280;43488;46.934;8.276;2024-01-06T16:36:48;95714.16;;;3.85;100.00